createdAt,value
2023-07-24T00:00:35.093Z,83.60
2023-07-24T00:03:03.370Z,83.90
2023-07-24T00:05:30.684Z,83.90
2023-07-24T00:07:57.640Z,84.10
2023-07-24T00:10:24.636Z,85.10
2023-07-24T00:12:51.575Z,84.20
2023-07-24T00:15:18.942Z,84.50
2023-07-24T00:17:45.967Z,84.60
2023-07-24T00:20:13.035Z,84.50
2023-07-24T00:22:39.958Z,84.50
2023-07-24T00:25:07.250Z,84.40
2023-07-24T00:27:34.201Z,84.50
2023-07-24T00:30:01.146Z,84.40
2023-07-24T00:32:28.168Z,84.30
2023-07-24T00:34:56.313Z,84.30
2023-07-24T00:37:25.341Z,84.20
2023-07-24T00:39:52.269Z,84.10
2023-07-24T00:42:19.201Z,84.10
2023-07-24T00:44:48.853Z,84.00
2023-07-24T00:47:18.821Z,84.10
2023-07-24T00:49:47.333Z,84.10
2023-07-24T00:52:14.534Z,84.10
2023-07-24T00:54:41.704Z,84.10
2023-07-24T00:57:08.833Z,83.90
2023-07-24T00:59:36.819Z,84.00
2023-07-24T01:02:03.987Z,84.00
2023-07-24T01:04:30.957Z,83.90
2023-07-24T01:06:58.625Z,83.80
2023-07-24T01:09:25.552Z,83.80
2023-07-24T01:12:04.474Z,83.80
2023-07-24T01:14:47.629Z,83.90
2023-07-24T01:17:18.318Z,83.70
2023-07-24T01:19:50.603Z,83.60
2023-07-24T01:22:29.400Z,83.60
2023-07-24T01:25:24.964Z,83.60
2023-07-24T01:27:51.892Z,84.20
2023-07-24T01:30:21.940Z,84.10
2023-07-24T01:32:49.697Z,84.20
2023-07-24T01:35:17.781Z,84.10
2023-07-24T01:37:45.375Z,84.00
2023-07-24T01:40:13.375Z,84.10
2023-07-24T01:42:40.829Z,83.90
2023-07-24T01:45:08.663Z,83.90
2023-07-24T01:47:35.713Z,83.90
2023-07-24T01:50:02.727Z,83.90
2023-07-24T01:52:29.699Z,83.90
2023-07-24T01:54:56.652Z,83.70
2023-07-24T01:57:23.581Z,83.70
2023-07-24T01:59:50.517Z,83.60
2023-07-24T02:02:17.716Z,83.60
2023-07-24T02:04:44.667Z,83.70
2023-07-24T02:07:11.592Z,83.70
2023-07-24T02:09:38.509Z,83.80
2023-07-24T02:12:06.440Z,83.90
2023-07-24T02:14:33.394Z,84.00
2023-07-24T02:17:00.372Z,84.00
2023-07-24T02:19:27.346Z,84.30
2023-07-24T02:21:54.269Z,84.30
2023-07-24T02:24:21.248Z,84.40
2023-07-24T02:26:48.182Z,84.20
2023-07-24T02:29:15.185Z,84.60
2023-07-24T02:31:43.989Z,84.70
2023-07-24T02:34:10.998Z,84.60
2023-07-24T02:36:42.431Z,85.40
2023-07-24T02:39:10.068Z,84.50
2023-07-24T02:41:36.998Z,84.60
2023-07-24T02:44:05.059Z,84.60
2023-07-24T02:46:32.269Z,84.50
2023-07-24T02:48:59.542Z,84.70
2023-07-24T02:51:26.756Z,85.00
2023-07-24T02:53:55.561Z,85.20
2023-07-24T02:56:22.828Z,85.50
2023-07-24T02:58:50.171Z,85.90
2023-07-24T03:01:17.174Z,86.00
2023-07-24T03:03:44.388Z,86.20
2023-07-24T03:06:11.408Z,86.20
2023-07-24T03:08:38.321Z,86.30
2023-07-24T03:11:08.999Z,86.30
2023-07-24T03:13:35.968Z,86.80
2023-07-24T03:16:03.399Z,86.60
2023-07-24T03:18:30.420Z,86.70
2023-07-24T03:21:00.040Z,86.50
2023-07-24T03:23:27.429Z,86.40
2023-07-24T03:25:54.481Z,86.30
2023-07-24T03:28:21.405Z,86.30
2023-07-24T03:30:48.521Z,86.30
2023-07-24T03:33:15.587Z,86.40
2023-07-24T03:35:42.538Z,86.60
2023-07-24T03:38:09.444Z,87.00
2023-07-24T03:40:36.386Z,87.10
2023-07-24T03:43:04.865Z,87.30
2023-07-24T03:45:32.745Z,87.80
2023-07-24T03:47:59.708Z,88.80
2023-07-24T03:50:26.662Z,89.30
2023-07-24T03:52:53.593Z,89.60
2023-07-24T03:55:20.535Z,90.00
2023-07-24T03:57:47.499Z,90.00
2023-07-24T04:00:14.968Z,90.10
2023-07-24T04:02:42.083Z,90.10
2023-07-24T04:05:09.124Z,90.20
2023-07-24T04:07:36.081Z,90.20
2023-07-24T04:10:03.016Z,90.20
2023-07-24T04:12:30.783Z,90.40
2023-07-24T04:14:57.715Z,90.50
2023-07-24T04:17:25.774Z,90.60
2023-07-24T04:19:52.811Z,90.70
2023-07-24T04:22:19.877Z,90.80
2023-07-24T04:24:46.815Z,90.70
2023-07-24T04:27:13.776Z,90.80
2023-07-24T04:29:40.703Z,90.80
2023-07-24T04:32:08.200Z,90.90
2023-07-24T04:34:35.238Z,90.90
2023-07-24T04:37:02.183Z,91.20
2023-07-24T04:39:29.105Z,91.30
2023-07-24T04:41:56.030Z,91.50
2023-07-24T04:44:23.056Z,91.50
2023-07-24T04:46:49.991Z,91.60
2023-07-24T04:49:17.141Z,91.70
2023-07-24T04:51:44.074Z,91.70
2023-07-24T04:54:11.001Z,91.80
2023-07-24T04:56:38.053Z,91.90
2023-07-24T04:59:04.977Z,92.10
2023-07-24T05:01:31.904Z,92.10
2023-07-24T05:03:58.850Z,92.20
2023-07-24T05:06:25.762Z,92.10
2023-07-24T05:08:54.409Z,92.20
2023-07-24T05:11:21.375Z,92.10
2023-07-24T05:13:48.307Z,92.20
2023-07-24T05:16:15.308Z,92.20
2023-07-24T05:18:42.265Z,92.30
2023-07-24T05:21:09.253Z,92.40
2023-07-24T05:23:36.192Z,92.40
2023-07-24T05:26:04.806Z,92.40
2023-07-24T05:28:33.576Z,92.50
2023-07-24T05:31:04.781Z,92.50
2023-07-24T05:33:32.831Z,92.40
2023-07-24T05:36:01.148Z,92.30
2023-07-24T05:38:28.351Z,92.10
2023-07-24T05:40:57.315Z,92.00
2023-07-24T05:43:24.545Z,91.90
2023-07-24T05:45:52.923Z,91.70
2023-07-24T05:48:19.939Z,91.60
2023-07-24T05:50:46.983Z,91.60
2023-07-24T05:53:13.966Z,91.60
2023-07-24T05:55:41.078Z,91.70
2023-07-24T05:58:08.026Z,91.70
2023-07-24T06:00:35.070Z,91.70
2023-07-24T06:03:02.043Z,91.70
2023-07-24T06:05:29.012Z,91.70
2023-07-24T06:07:56.160Z,91.80
2023-07-24T06:10:23.197Z,91.90
2023-07-24T06:12:50.150Z,91.80
2023-07-24T06:15:17.082Z,91.90
2023-07-24T06:17:44.046Z,91.90
2023-07-24T06:20:11.241Z,91.80
2023-07-24T06:22:38.161Z,91.80
2023-07-24T06:25:05.530Z,91.60
2023-07-24T06:27:32.483Z,91.70
2023-07-24T06:30:12.937Z,91.60
2023-07-24T06:32:42.432Z,91.40
2023-07-24T06:35:09.490Z,91.10
2023-07-24T06:37:36.451Z,90.80
2023-07-24T06:40:03.806Z,90.80
2023-07-24T06:42:30.907Z,90.60
2023-07-24T06:44:57.821Z,90.40
2023-07-24T06:47:24.766Z,90.40
2023-07-24T06:49:51.770Z,90.40
2023-07-24T06:52:18.916Z,90.10
2023-07-24T06:54:45.886Z,90.00
2023-07-24T06:57:12.838Z,88.70
2023-07-24T06:59:39.775Z,89.20
2023-07-24T07:02:06.983Z,89.00
2023-07-24T07:04:34.020Z,89.10
2023-07-24T07:07:00.941Z,89.00
2023-07-24T07:09:27.932Z,86.20
2023-07-24T07:11:54.859Z,84.00
2023-07-24T07:14:21.784Z,83.30
2023-07-24T07:16:48.754Z,83.80
2023-07-24T07:19:15.901Z,84.20
2023-07-24T07:21:42.842Z,82.70
2023-07-24T07:24:09.820Z,81.60
2023-07-24T07:26:36.800Z,81.00
2023-07-24T07:29:03.746Z,81.50
2023-07-24T07:31:31.108Z,80.70
2023-07-24T07:33:58.077Z,79.90
2023-07-24T07:36:25.071Z,79.20
2023-07-24T07:38:51.994Z,79.80
2023-07-24T07:41:18.931Z,79.70
2023-07-24T07:43:45.850Z,79.10
2023-07-24T07:46:12.924Z,78.90
2023-07-24T07:48:39.878Z,78.50
2023-07-24T07:51:06.826Z,79.30
2023-07-24T07:53:33.813Z,78.30
2023-07-24T07:56:01.246Z,77.30
2023-07-24T07:58:28.257Z,77.50
2023-07-24T08:00:55.210Z,77.40
2023-07-24T08:03:22.404Z,76.10
2023-07-24T08:05:49.368Z,75.40
2023-07-24T08:08:16.311Z,75.00
2023-07-24T08:10:43.241Z,75.20
2023-07-24T08:13:10.199Z,75.00
2023-07-24T08:15:38.179Z,75.40
2023-07-24T08:18:06.157Z,76.00
2023-07-24T08:20:37.148Z,76.80
2023-07-24T08:23:04.603Z,75.70
2023-07-24T08:25:31.801Z,75.70
2023-07-24T08:28:05.189Z,76.00
2023-07-24T08:30:34.879Z,75.40
2023-07-24T08:33:01.857Z,74.80
2023-07-24T08:35:29.068Z,73.80
2023-07-24T08:37:56.027Z,73.70
2023-07-24T08:40:22.977Z,74.30
2023-07-24T08:42:54.229Z,74.50
2023-07-24T08:45:21.827Z,75.20
2023-07-24T08:47:49.797Z,75.40
2023-07-24T08:50:18.249Z,75.60
2023-07-24T08:52:46.100Z,75.00
2023-07-24T08:55:13.317Z,74.10
2023-07-24T08:57:40.351Z,73.90
2023-07-24T09:00:07.955Z,73.20
2023-07-24T09:02:36.739Z,73.90
2023-07-24T09:05:04.793Z,73.60
2023-07-24T09:07:32.494Z,73.50
2023-07-24T09:09:59.678Z,73.20
2023-07-24T09:12:26.641Z,73.00
2023-07-24T09:15:06.677Z,72.00
2023-07-24T09:17:34.134Z,72.00
2023-07-24T09:20:02.806Z,72.40
2023-07-24T09:22:29.812Z,73.40
2023-07-24T09:24:58.886Z,74.40
2023-07-24T09:27:31.691Z,75.00
2023-07-24T09:29:59.568Z,75.50
2023-07-24T09:32:28.285Z,75.30
2023-07-24T09:34:55.680Z,75.00
2023-07-24T09:37:27.332Z,74.20
2023-07-24T09:39:54.522Z,74.60
2023-07-24T09:42:32.352Z,74.10
2023-07-24T09:44:59.799Z,73.50
2023-07-24T09:47:51.454Z,73.30
2023-07-24T09:50:14.471Z,73.10
2023-07-24T09:52:44.293Z,73.40
2023-07-24T09:55:23.225Z,73.80
2023-07-24T09:57:53.173Z,74.60
2023-07-24T10:00:21.617Z,75.00
2023-07-24T10:02:49.639Z,74.90
2023-07-24T10:05:17.269Z,75.30
2023-07-24T10:07:44.391Z,75.50
2023-07-24T10:10:11.713Z,75.10
2023-07-24T10:12:39.064Z,75.40
2023-07-24T10:15:07.731Z,75.70
2023-07-24T10:17:40.011Z,75.50
2023-07-24T10:20:09.976Z,75.40
2023-07-24T10:22:42.288Z,76.10
2023-07-24T10:25:10.553Z,74.00
2023-07-24T10:27:45.091Z,74.20
2023-07-24T10:30:27.417Z,74.00
2023-07-24T10:33:11.767Z,73.80
2023-07-24T10:35:47.757Z,73.60
2023-07-24T10:38:16.974Z,74.00
2023-07-24T10:40:47.636Z,74.10
2023-07-24T10:43:19.768Z,74.70
2023-07-24T10:45:51.627Z,74.80
2023-07-24T10:48:21.223Z,74.20
2023-07-24T10:50:54.025Z,74.70
2023-07-24T10:53:24.050Z,75.00
2023-07-24T10:55:52.966Z,75.20
2023-07-24T10:58:20.368Z,75.40
2023-07-24T11:00:48.488Z,75.40
2023-07-24T11:03:16.161Z,76.50
2023-07-24T11:05:45.128Z,76.80
2023-07-24T11:08:20.285Z,77.80
2023-07-24T11:10:50.457Z,79.00
2023-07-24T11:13:26.752Z,79.90
2023-07-24T11:15:55.036Z,81.90
2023-07-24T11:18:23.542Z,82.20
2023-07-24T11:20:56.606Z,82.20
2023-07-24T11:23:25.162Z,83.10
2023-07-24T11:25:54.143Z,84.20
2023-07-24T11:28:21.580Z,85.10
2023-07-24T11:30:48.609Z,85.90
2023-07-24T11:33:19.561Z,86.50
2023-07-24T11:35:46.955Z,87.50
2023-07-24T11:38:14.602Z,87.90
2023-07-24T11:40:43.806Z,88.60
2023-07-24T11:43:18.462Z,89.20
2023-07-24T11:45:47.977Z,89.80
2023-07-24T11:48:14.995Z,90.10
2023-07-24T11:50:48.626Z,90.20
2023-07-24T11:53:32.884Z,90.50
2023-07-24T11:56:02.164Z,91.00
2023-07-24T11:58:30.815Z,90.80
2023-07-24T12:00:58.258Z,91.00
2023-07-24T12:03:30.171Z,91.00
2023-07-24T12:05:57.483Z,91.30
2023-07-24T12:08:36.143Z,91.30
2023-07-24T12:11:03.676Z,91.40
2023-07-24T12:13:32.592Z,91.30
2023-07-24T12:15:59.541Z,91.30
2023-07-24T12:18:26.511Z,91.30
2023-07-24T12:20:53.530Z,91.50
2023-07-24T12:23:20.533Z,91.60
2023-07-24T12:25:48.585Z,91.40
2023-07-24T12:28:15.533Z,91.20
2023-07-24T12:30:42.470Z,91.10
2023-07-24T12:33:09.527Z,91.50
2023-07-24T12:35:36.503Z,91.60
2023-07-24T12:38:03.424Z,91.60
2023-07-24T12:40:30.351Z,91.00
2023-07-24T12:42:57.286Z,90.90
2023-07-24T12:45:24.212Z,90.80
2023-07-24T12:47:51.240Z,91.10
2023-07-24T12:50:18.687Z,91.00
2023-07-24T12:52:45.761Z,90.80
2023-07-24T12:55:13.213Z,90.80
2023-07-24T12:57:40.146Z,90.60
2023-07-24T13:00:07.793Z,90.40
2023-07-24T13:02:34.823Z,90.50
2023-07-24T13:05:02.058Z,90.90
2023-07-24T13:07:30.334Z,89.60
2023-07-24T13:09:57.247Z,89.70
2023-07-24T13:12:24.219Z,89.00
2023-07-24T13:14:51.138Z,88.80
2023-07-24T13:17:18.241Z,88.60
2023-07-24T13:19:45.169Z,88.10
2023-07-24T13:22:12.101Z,88.40
2023-07-24T13:24:39.032Z,88.90
2023-07-24T13:27:06.315Z,89.10
2023-07-24T13:29:33.245Z,88.70
2023-07-24T13:32:00.167Z,88.90
2023-07-24T13:34:27.092Z,89.00
2023-07-24T13:36:54.018Z,88.40
2023-07-24T13:39:22.564Z,88.90
2023-07-24T13:41:49.503Z,88.60
2023-07-24T13:44:16.412Z,89.20
2023-07-24T13:46:43.360Z,88.20
2023-07-24T13:49:10.323Z,87.30
2023-07-24T13:51:37.246Z,87.70
2023-07-24T13:54:04.241Z,88.00
2023-07-24T13:56:34.899Z,87.60
2023-07-24T13:59:02.189Z,87.90
2023-07-24T14:01:29.854Z,87.80
2023-07-24T14:03:57.376Z,87.00
2023-07-24T14:06:24.573Z,85.40
2023-07-24T14:08:51.583Z,83.70
2023-07-24T14:11:18.512Z,82.80
2023-07-24T14:13:47.227Z,83.20
2023-07-24T14:16:14.408Z,83.50
2023-07-24T14:18:41.389Z,83.40
2023-07-24T14:21:08.316Z,83.50
2023-07-24T14:23:35.333Z,84.10
2023-07-24T14:26:02.236Z,84.50
2023-07-24T14:28:29.166Z,85.50
2023-07-24T14:30:56.098Z,84.30
2023-07-24T14:33:23.582Z,84.00
2023-07-24T14:35:50.974Z,84.20
2023-07-24T14:38:18.064Z,84.30
2023-07-24T14:40:45.038Z,84.90
2023-07-24T14:43:12.018Z,85.20
2023-07-24T14:45:39.071Z,85.60
2023-07-24T14:48:10.061Z,85.90
2023-07-24T14:50:37.349Z,86.00
2023-07-24T14:53:04.505Z,85.70
2023-07-24T14:55:31.481Z,86.00
2023-07-24T14:57:58.400Z,85.90
2023-07-24T15:00:25.472Z,85.90
2023-07-24T15:02:52.470Z,85.90
2023-07-24T15:05:19.434Z,85.90
2023-07-24T15:07:46.337Z,86.10
2023-07-24T15:10:13.275Z,86.00
2023-07-24T15:12:40.241Z,86.00
2023-07-24T15:15:07.738Z,86.20
2023-07-24T15:17:34.716Z,86.30
2023-07-24T15:20:01.671Z,86.70
2023-07-24T15:22:28.633Z,86.80
2023-07-24T15:24:55.702Z,86.50
2023-07-24T15:27:22.686Z,86.20
2023-07-24T15:29:49.701Z,85.90
2023-07-24T15:32:17.974Z,85.80
2023-07-24T15:34:45.223Z,86.20
2023-07-24T15:37:12.207Z,86.30
2023-07-24T15:39:39.125Z,86.00
2023-07-24T15:42:06.201Z,86.00
2023-07-24T15:44:33.142Z,85.90
2023-07-24T15:47:00.112Z,86.20
2023-07-24T15:49:27.092Z,86.40
2023-07-24T15:51:54.757Z,86.70
2023-07-24T15:54:22.007Z,87.10
2023-07-24T15:56:48.955Z,87.20
2023-07-24T15:59:15.907Z,87.40
2023-07-24T16:01:42.909Z,87.40
2023-07-24T16:04:09.919Z,87.10
2023-07-24T16:06:36.894Z,87.20
2023-07-24T16:09:03.891Z,87.10
2023-07-24T16:11:31.057Z,87.10
2023-07-24T16:13:58.119Z,86.40
2023-07-24T16:16:25.062Z,86.30
2023-07-24T16:19:18.247Z,86.30
2023-07-24T16:21:47.721Z,84.90
2023-07-24T16:24:18.448Z,85.30
2023-07-24T16:26:46.606Z,84.90
2023-07-24T16:29:13.669Z,85.00
2023-07-24T16:31:41.014Z,84.80
2023-07-24T16:34:08.338Z,84.50
2023-07-24T16:36:36.297Z,84.10
2023-07-24T16:39:05.291Z,83.70
2023-07-24T16:41:33.685Z,83.90
2023-07-24T16:44:02.735Z,83.40
2023-07-24T16:46:30.511Z,82.90
2023-07-24T16:48:57.489Z,82.90
2023-07-24T16:51:24.488Z,82.90
2023-07-24T16:53:51.494Z,82.80
2023-07-24T16:56:18.436Z,82.80
2023-07-24T16:58:45.442Z,83.30
2023-07-24T17:01:12.681Z,83.50
2023-07-24T17:03:39.818Z,83.60
2023-07-24T17:06:06.860Z,83.90
2023-07-24T17:08:33.761Z,83.70
2023-07-24T17:11:00.813Z,83.70
2023-07-24T17:13:27.940Z,83.70
2023-07-24T17:15:54.888Z,84.00
2023-07-24T17:18:21.811Z,83.90
2023-07-24T17:20:51.119Z,83.70
2023-07-24T17:23:18.469Z,83.60
2023-07-24T17:25:47.399Z,83.70
2023-07-24T17:28:14.444Z,83.50
2023-07-24T17:30:41.405Z,83.50
2023-07-24T17:33:08.425Z,83.40
2023-07-24T17:35:35.388Z,83.40
2023-07-24T17:38:02.408Z,83.80
2023-07-24T17:40:29.537Z,84.00
2023-07-24T17:42:56.471Z,84.30
2023-07-24T17:45:23.447Z,84.70
2023-07-24T17:47:50.471Z,85.00
2023-07-24T17:50:17.483Z,85.30
2023-07-24T17:52:44.513Z,85.60
2023-07-24T17:55:11.527Z,85.70
2023-07-24T17:57:38.501Z,86.00
2023-07-24T18:00:06.793Z,86.30
2023-07-24T18:02:33.912Z,86.60
2023-07-24T18:05:00.895Z,86.60
2023-07-24T18:07:27.840Z,87.00
2023-07-24T18:09:54.785Z,87.10
2023-07-24T18:12:22.175Z,87.20
2023-07-24T18:14:49.121Z,87.50
2023-07-24T18:17:16.077Z,87.70
2023-07-24T18:19:43.041Z,87.70
2023-07-24T18:22:09.954Z,87.80
2023-07-24T18:24:36.914Z,88.00
2023-07-24T18:27:03.972Z,88.20
2023-07-24T18:29:32.146Z,88.20
2023-07-24T18:31:59.220Z,88.20
2023-07-24T18:34:26.177Z,88.30
2023-07-24T18:36:53.107Z,88.50
2023-07-24T18:39:20.036Z,88.30
2023-07-24T18:41:47.828Z,88.30
2023-07-24T18:44:15.244Z,88.40
2023-07-24T18:46:42.596Z,88.30
2023-07-24T18:49:09.522Z,88.50
2023-07-24T18:51:36.455Z,88.50
2023-07-24T18:54:03.499Z,88.60
2023-07-24T18:56:30.443Z,88.80
2023-07-24T18:58:57.382Z,89.10
2023-07-24T19:01:25.882Z,89.10
2023-07-24T19:03:52.980Z,89.40
2023-07-24T19:06:21.769Z,89.60
2023-07-24T19:08:49.156Z,89.90
2023-07-24T19:11:17.679Z,90.00
2023-07-24T19:13:44.595Z,90.00
2023-07-24T19:16:11.561Z,90.10
2023-07-24T19:18:38.567Z,90.30
2023-07-24T19:21:05.869Z,90.40
2023-07-24T19:23:32.971Z,90.40
2023-07-24T19:25:59.947Z,90.40
2023-07-24T19:28:26.993Z,90.50
2023-07-24T19:30:58.864Z,90.60
2023-07-24T19:33:26.307Z,90.70
2023-07-24T19:36:02.535Z,90.70
2023-07-24T19:38:29.696Z,90.90
2023-07-24T19:41:01.593Z,90.80
2023-07-24T19:43:29.569Z,90.90
2023-07-24T19:45:56.744Z,90.90
2023-07-24T19:48:25.909Z,91.00
2023-07-24T19:50:58.752Z,91.20
2023-07-24T19:53:26.898Z,91.20
2023-07-24T19:55:54.728Z,91.20
2023-07-24T19:58:33.217Z,91.30
2023-07-24T20:01:01.562Z,91.50
2023-07-24T20:03:29.378Z,91.50
2023-07-24T20:06:04.570Z,91.50
2023-07-24T20:08:35.417Z,91.60
2023-07-24T20:11:07.442Z,91.60
2023-07-24T20:13:35.411Z,91.70
2023-07-24T20:16:02.711Z,91.80
2023-07-24T20:18:29.805Z,91.80
2023-07-24T20:20:57.509Z,91.80
2023-07-24T20:23:24.607Z,91.90
2023-07-24T20:25:52.086Z,91.90
2023-07-24T20:28:21.668Z,91.90
2023-07-24T20:30:48.831Z,91.90
2023-07-24T20:33:16.358Z,91.90
2023-07-24T20:35:45.963Z,92.00
2023-07-24T20:38:27.478Z,92.00
2023-07-24T20:40:54.611Z,92.10
2023-07-24T20:43:21.743Z,92.10
2023-07-24T20:45:48.732Z,92.10
2023-07-24T20:48:15.716Z,92.50
2023-07-24T20:50:42.664Z,92.10
2023-07-24T20:53:10.514Z,92.20
2023-07-24T20:55:37.582Z,92.30
2023-07-24T20:58:04.716Z,92.30
2023-07-24T21:00:31.797Z,92.50
2023-07-24T21:02:59.036Z,92.50
2023-07-24T21:05:26.096Z,92.60
2023-07-24T21:07:54.974Z,92.50
2023-07-24T21:10:22.078Z,92.60
2023-07-24T21:12:49.221Z,92.60
2023-07-24T21:15:16.188Z,92.60
2023-07-24T21:17:43.185Z,92.60
2023-07-24T21:20:10.760Z,92.50
2023-07-24T21:22:37.687Z,92.40
2023-07-24T21:25:04.784Z,92.40
2023-07-24T21:27:31.742Z,92.30
2023-07-24T21:29:58.700Z,92.20
2023-07-24T21:32:25.641Z,92.10
2023-07-24T21:34:52.660Z,92.00
2023-07-24T21:37:19.593Z,91.80
2023-07-24T21:39:46.529Z,91.50
2023-07-24T21:42:13.487Z,91.30
2023-07-24T21:44:40.444Z,91.00
2023-07-24T21:47:07.500Z,90.70
2023-07-24T21:49:34.479Z,90.50
2023-07-24T21:52:01.503Z,90.50
2023-07-24T21:54:28.447Z,90.50
2023-07-24T21:56:55.491Z,90.50
2023-07-24T21:59:22.487Z,90.50
2023-07-24T22:01:49.379Z,90.50
2023-07-24T22:04:16.348Z,90.50
2023-07-24T22:06:43.273Z,90.50
2023-07-24T22:09:10.247Z,90.50
2023-07-24T22:11:37.221Z,90.90
2023-07-24T22:14:04.279Z,90.50
2023-07-24T22:16:31.231Z,90.50
2023-07-24T22:18:58.190Z,90.40
2023-07-24T22:21:25.145Z,90.40
2023-07-24T22:23:52.083Z,90.50
2023-07-24T22:26:19.478Z,90.50
2023-07-24T22:28:46.427Z,90.50
2023-07-24T22:31:13.423Z,90.40
2023-07-24T22:33:40.349Z,90.40
2023-07-24T22:36:07.266Z,90.50
2023-07-24T22:38:34.176Z,90.50
2023-07-24T22:41:12.702Z,90.50
2023-07-24T22:43:40.181Z,90.60
2023-07-24T22:46:07.337Z,90.60
2023-07-24T22:48:34.534Z,90.60
2023-07-24T22:51:01.569Z,90.60
2023-07-24T22:53:28.514Z,90.60
2023-07-24T22:55:55.454Z,90.60
2023-07-24T22:58:22.366Z,90.70
2023-07-24T23:00:49.338Z,90.80
2023-07-24T23:03:16.322Z,90.70
2023-07-24T23:05:43.344Z,90.80
2023-07-24T23:08:10.245Z,90.80
2023-07-24T23:10:37.185Z,90.90
2023-07-24T23:13:04.101Z,91.00
2023-07-24T23:15:31.046Z,91.00
2023-07-24T23:17:57.999Z,91.10
2023-07-24T23:20:25.153Z,91.20
2023-07-24T23:22:52.064Z,91.30
2023-07-24T23:25:19.050Z,91.30
2023-07-24T23:27:46.035Z,91.40
2023-07-24T23:30:12.973Z,91.50
2023-07-24T23:32:39.927Z,91.60
2023-07-24T23:35:07.294Z,91.60
2023-07-24T23:37:34.219Z,91.70
2023-07-24T23:40:01.158Z,91.80
2023-07-24T23:42:28.078Z,91.80
2023-07-24T23:44:54.980Z,91.70
2023-07-24T23:47:21.910Z,91.80
2023-07-24T23:49:48.889Z,91.90
2023-07-24T23:52:15.812Z,92.30
2023-07-24T23:54:42.733Z,92.10
2023-07-24T23:57:09.653Z,92.30
2023-07-24T23:59:36.581Z,92.40
